Central City, Missouri
Current Conditions -  °F | °C
As of 8:53 AM on Monday 24 Nov 2014 (Local Time) from KJLN Reporting Station
Clear Clear  
Wind Chill: 32°   Ceiling: Unl
Heat Index: 40°   Visibility: 10mi
Dew Point: 29°   Wind: 15mph
Humidity: 65%   Direction: 240°WSW
Pressure: 29.82"   Gusts: NA
Location:  37.1074°N, 94.5218°W
Report Text: KJLN 241453Z 24013KT 10SM CLR 04/M02 A2982 RMK AO2 SLP101 T00441017 51024
Loading
Personal Weather Stations






























Interactive Weather Map New forecast layout! Learn more

10-Day Weather Forecast

Advertisements
Track Severe Weather on mobile